sensor_id;sensor_type;location;lat;lon;timestamp;temperature;humidity
9383;DHT22;4731;49.708;10.816;2023-10-09T00:00:13;13.30;99.90
9383;DHT22;4731;49.708;10.816;2023-10-09T00:03:12;11.60;99.90
9383;DHT22;4731;49.708;10.816;2023-10-09T00:05:38;11.60;99.90
9383;DHT22;4731;49.708;10.816;2023-10-09T00:08:11;12.80;99.90
9383;DHT22;4731;49.708;10.816;2023-10-09T00:10:41;11.60;99.90
9383;DHT22;4731;49.708;10.816;2023-10-09T00:13:15;13.30;99.90
9383;DHT22;4731;49.708;10.816;2023-10-09T00:15:43;11.70;99.90
9383;DHT22;4731;49.708;10.816;2023-10-09T00:18:18;14.10;99.90
9383;DHT22;4731;49.708;10.816;2023-10-09T00:20:48;12.50;99.90
9383;DHT22;4731;49.708;10.816;2023-10-09T00:23:20;11.70;99.90
9383;DHT22;4731;49.708;10.816;2023-10-09T00:25:51;11.70;99.90
9383;DHT22;4731;49.708;10.816;2023-10-09T00:28:35;11.80;99.90
9383;DHT22;4731;49.708;10.816;2023-10-09T00:31:04;11.80;99.90
9383;DHT22;4731;49.708;10.816;2023-10-09T00:33:34;11.90;99.90
9383;DHT22;4731;49.708;10.816;2023-10-09T00:36:04;12.00;99.90
9383;DHT22;4731;49.708;10.816;2023-10-09T00:38:36;11.90;99.90
9383;DHT22;4731;49.708;10.816;2023-10-09T00:41:04;13.30;99.90
9383;DHT22;4731;49.708;10.816;2023-10-09T00:43:45;12.00;99.90
9383;DHT22;4731;49.708;10.816;2023-10-09T00:46:16;11.90;99.90
9383;DHT22;4731;49.708;10.816;2023-10-09T00:48:53;11.90;99.90
9383;DHT22;4731;49.708;10.816;2023-10-09T00:51:21;13.90;99.90
9383;DHT22;4731;49.708;10.816;2023-10-09T00:53:51;12.00;99.90
9383;DHT22;4731;49.708;10.816;2023-10-09T00:56:19;12.00;99.90
9383;DHT22;4731;49.708;10.816;2023-10-09T00:58:55;12.00;99.90
9383;DHT22;4731;49.708;10.816;2023-10-09T01:01:26;12.50;99.90
9383;DHT22;4731;49.708;10.816;2023-10-09T01:04:01;13.20;99.90
9383;DHT22;4731;49.708;10.816;2023-10-09T01:06:32;12.00;99.90
9383;DHT22;4731;49.708;10.816;2023-10-09T01:08:59;12.20;99.90
9383;DHT22;4731;49.708;10.816;2023-10-09T01:11:35;12.00;99.90
9383;DHT22;4731;49.708;10.816;2023-10-09T01:14:12;13.00;99.90
9383;DHT22;4731;49.708;10.816;2023-10-09T01:16:40;12.00;99.90
9383;DHT22;4731;49.708;10.816;2023-10-09T01:19:11;12.00;99.90
9383;DHT22;4731;49.708;10.816;2023-10-09T01:21:47;13.00;99.90
9383;DHT22;4731;49.708;10.816;2023-10-09T01:24:17;13.10;99.90
9383;DHT22;4731;49.708;10.816;2023-10-09T01:26:46;12.10;99.90
9383;DHT22;4731;49.708;10.816;2023-10-09T01:29:15;12.10;99.90
9383;DHT22;4731;49.708;10.816;2023-10-09T01:31:44;12.10;99.90
9383;DHT22;4731;49.708;10.816;2023-10-09T01:34:18;12.10;99.90
9383;DHT22;4731;49.708;10.816;2023-10-09T01:36:50;12.00;99.90
9383;DHT22;4731;49.708;10.816;2023-10-09T01:39:21;12.00;99.90
9383;DHT22;4731;49.708;10.816;2023-10-09T01:41:56;12.00;99.90
9383;DHT22;4731;49.708;10.816;2023-10-09T01:44:27;12.20;99.90
9383;DHT22;4731;49.708;10.816;2023-10-09T01:47:00;12.00;99.90
9383;DHT22;4731;49.708;10.816;2023-10-09T01:49:32;12.60;99.90
9383;DHT22;4731;49.708;10.816;2023-10-09T01:52:01;12.10;99.90
9383;DHT22;4731;49.708;10.816;2023-10-09T01:54:35;12.50;99.90
9383;DHT22;4731;49.708;10.816;2023-10-09T01:57:04;12.10;99.90
9383;DHT22;4731;49.708;10.816;2023-10-09T01:59:36;12.10;99.90
9383;DHT22;4731;49.708;10.816;2023-10-09T02:02:09;13.30;99.90
9383;DHT22;4731;49.708;10.816;2023-10-09T02:04:50;12.20;99.90
9383;DHT22;4731;49.708;10.816;2023-10-09T02:07:16;12.20;99.90
9383;DHT22;4731;49.708;10.816;2023-10-09T02:09:49;12.10;99.90
9383;DHT22;4731;49.708;10.816;2023-10-09T02:12:17;12.10;99.90
9383;DHT22;4731;49.708;10.816;2023-10-09T02:14:43;14.30;99.90
9383;DHT22;4731;49.708;10.816;2023-10-09T02:17:10;12.10;99.90
9383;DHT22;4731;49.708;10.816;2023-10-09T02:19:44;14.10;99.90
9383;DHT22;4731;49.708;10.816;2023-10-09T02:22:14;12.10;99.90
9383;DHT22;4731;49.708;10.816;2023-10-09T02:24:42;12.10;99.90
9383;DHT22;4731;49.708;10.816;2023-10-09T02:27:19;12.10;99.90
9383;DHT22;4731;49.708;10.816;2023-10-09T02:30:04;12.10;99.90
9383;DHT22;4731;49.708;10.816;2023-10-09T02:32:43;12.00;99.90
9383;DHT22;4731;49.708;10.816;2023-10-09T02:35:14;12.00;99.90
9383;DHT22;4731;49.708;10.816;2023-10-09T02:38:03;12.00;99.90
9383;DHT22;4731;49.708;10.816;2023-10-09T02:40:32;11.90;99.90
9383;DHT22;4731;49.708;10.816;2023-10-09T02:43:08;13.40;99.90
9383;DHT22;4731;49.708;10.816;2023-10-09T02:45:39;11.80;99.90
9383;DHT22;4731;49.708;10.816;2023-10-09T02:48:16;11.80;99.90
9383;DHT22;4731;49.708;10.816;2023-10-09T02:50:45;11.80;99.90
9383;DHT22;4731;49.708;10.816;2023-10-09T02:53:12;11.70;99.90
9383;DHT22;4731;49.708;10.816;2023-10-09T02:55:44;11.60;99.90
9383;DHT22;4731;49.708;10.816;2023-10-09T02:58:32;11.60;99.90
9383;DHT22;4731;49.708;10.816;2023-10-09T03:01:02;13.60;99.90
9383;DHT22;4731;49.708;10.816;2023-10-09T03:03:29;11.70;99.90
9383;DHT22;4731;49.708;10.816;2023-10-09T03:05:56;11.50;99.90
9383;DHT22;4731;49.708;10.816;2023-10-09T03:08:23;11.80;99.90
9383;DHT22;4731;49.708;10.816;2023-10-09T03:10:50;11.70;99.90
9383;DHT22;4731;49.708;10.816;2023-10-09T03:13:17;13.60;99.90
9383;DHT22;4731;49.708;10.816;2023-10-09T03:15:47;13.60;99.90
9383;DHT22;4731;49.708;10.816;2023-10-09T03:18:14;11.40;99.90
9383;DHT22;4731;49.708;10.816;2023-10-09T03:20:41;11.30;99.90
9383;DHT22;4731;49.708;10.816;2023-10-09T03:23:10;11.20;99.90
9383;DHT22;4731;49.708;10.816;2023-10-09T03:25:40;11.30;99.90
9383;DHT22;4731;49.708;10.816;2023-10-09T03:28:11;11.80;99.90
9383;DHT22;4731;49.708;10.816;2023-10-09T03:30:38;11.30;99.90
9383;DHT22;4731;49.708;10.816;2023-10-09T03:33:07;11.20;99.90
9383;DHT22;4731;49.708;10.816;2023-10-09T03:35:34;11.50;99.90
9383;DHT22;4731;49.708;10.816;2023-10-09T03:38:02;11.70;99.90
9383;DHT22;4731;49.708;10.816;2023-10-09T03:40:37;11.20;99.90
9383;DHT22;4731;49.708;10.816;2023-10-09T03:43:08;13.60;99.90
9383;DHT22;4731;49.708;10.816;2023-10-09T03:45:35;11.00;99.90
9383;DHT22;4731;49.708;10.816;2023-10-09T03:48:04;10.90;99.90
9383;DHT22;4731;49.708;10.816;2023-10-09T03:50:38;10.90;99.90
9383;DHT22;4731;49.708;10.816;2023-10-09T03:53:08;10.90;99.90
9383;DHT22;4731;49.708;10.816;2023-10-09T03:55:38;10.80;99.90
9383;DHT22;4731;49.708;10.816;2023-10-09T03:58:05;10.70;99.90
9383;DHT22;4731;49.708;10.816;2023-10-09T04:00:32;10.60;99.90
9383;DHT22;4731;49.708;10.816;2023-10-09T04:03:10;10.60;99.90
9383;DHT22;4731;49.708;10.816;2023-10-09T04:05:41;10.50;99.90
9383;DHT22;4731;49.708;10.816;2023-10-09T04:08:09;10.40;99.90
9383;DHT22;4731;49.708;10.816;2023-10-09T04:10:42;10.30;99.90
9383;DHT22;4731;49.708;10.816;2023-10-09T04:13:18;10.20;99.90
9383;DHT22;4731;49.708;10.816;2023-10-09T04:15:49;10.20;99.90
9383;DHT22;4731;49.708;10.816;2023-10-09T04:18:18;10.20;99.90
9383;DHT22;4731;49.708;10.816;2023-10-09T04:20:47;10.10;99.90
9383;DHT22;4731;49.708;10.816;2023-10-09T04:23:33;10.00;99.90
9383;DHT22;4731;49.708;10.816;2023-10-09T04:26:21;10.00;99.90
9383;DHT22;4731;49.708;10.816;2023-10-09T04:28:50;11.00;99.90
9383;DHT22;4731;49.708;10.816;2023-10-09T04:31:19;9.90;99.90
9383;DHT22;4731;49.708;10.816;2023-10-09T04:33:47;10.00;99.90
9383;DHT22;4731;49.708;10.816;2023-10-09T04:36:24;10.00;99.90
9383;DHT22;4731;49.708;10.816;2023-10-09T04:38:54;9.90;99.90
9383;DHT22;4731;49.708;10.816;2023-10-09T04:41:42;9.90;99.90
9383;DHT22;4731;49.708;10.816;2023-10-09T04:44:18;9.80;99.90
9383;DHT22;4731;49.708;10.816;2023-10-09T04:46:44;9.80;99.90
9383;DHT22;4731;49.708;10.816;2023-10-09T04:49:31;10.60;99.90
9383;DHT22;4731;49.708;10.816;2023-10-09T04:52:16;12.30;99.90
9383;DHT22;4731;49.708;10.816;2023-10-09T04:55:06;11.00;99.90
9383;DHT22;4731;49.708;10.816;2023-10-09T04:57:44;9.80;99.90
9383;DHT22;4731;49.708;10.816;2023-10-09T05:00:14;9.80;99.90
9383;DHT22;4731;49.708;10.816;2023-10-09T05:03:02;9.80;99.90
9383;DHT22;4731;49.708;10.816;2023-10-09T05:05:36;9.90;99.90
9383;DHT22;4731;49.708;10.816;2023-10-09T05:08:21;10.80;99.90
9383;DHT22;4731;49.708;10.816;2023-10-09T05:10:55;11.80;99.90
9383;DHT22;4731;49.708;10.816;2023-10-09T05:13:32;10.10;99.90
9383;DHT22;4731;49.708;10.816;2023-10-09T05:16:10;10.70;99.90
9383;DHT22;4731;49.708;10.816;2023-10-09T05:18:41;9.90;99.90
9383;DHT22;4731;49.708;10.816;2023-10-09T05:21:10;12.50;99.90
9383;DHT22;4731;49.708;10.816;2023-10-09T05:23:52;10.00;99.90
9383;DHT22;4731;49.708;10.816;2023-10-09T05:26:33;11.00;99.90
9383;DHT22;4731;49.708;10.816;2023-10-09T05:29:18;10.10;99.90
9383;DHT22;4731;49.708;10.816;2023-10-09T05:32:00;9.90;99.90
9383;DHT22;4731;49.708;10.816;2023-10-09T05:34:31;9.90;99.90
9383;DHT22;4731;49.708;10.816;2023-10-09T05:36:59;9.90;99.90
9383;DHT22;4731;49.708;10.816;2023-10-09T05:39:44;10.00;99.90
9383;DHT22;4731;49.708;10.816;2023-10-09T05:42:23;9.90;99.90
9383;DHT22;4731;49.708;10.816;2023-10-09T05:44:55;11.90;99.90
9383;DHT22;4731;49.708;10.816;2023-10-09T05:47:41;10.00;99.90
9383;DHT22;4731;49.708;10.816;2023-10-09T05:50:13;10.10;99.90
9383;DHT22;4731;49.708;10.816;2023-10-09T05:52:58;10.30;99.90
9383;DHT22;4731;49.708;10.816;2023-10-09T05:55:34;10.30;99.90
9383;DHT22;4731;49.708;10.816;2023-10-09T05:58:19;10.50;99.90
9383;DHT22;4731;49.708;10.816;2023-10-09T06:01:03;10.60;99.90
9383;DHT22;4731;49.708;10.816;2023-10-09T06:03:46;12.10;99.90
9383;DHT22;4731;49.708;10.816;2023-10-09T06:06:19;10.80;99.90
9383;DHT22;4731;49.708;10.816;2023-10-09T06:09:02;12.10;99.90
9383;DHT22;4731;49.708;10.816;2023-10-09T06:11:49;11.00;99.90
9383;DHT22;4731;49.708;10.816;2023-10-09T06:14:22;11.10;99.90
9383;DHT22;4731;49.708;10.816;2023-10-09T06:16:52;11.10;99.90
9383;DHT22;4731;49.708;10.816;2023-10-09T06:19:41;12.80;99.90
9383;DHT22;4731;49.708;10.816;2023-10-09T06:22:09;12.10;99.90
9383;DHT22;4731;49.708;10.816;2023-10-09T06:25:06;11.40;99.90
9383;DHT22;4731;49.708;10.816;2023-10-09T06:27:39;11.50;99.90
9383;DHT22;4731;49.708;10.816;2023-10-09T06:30:19;11.80;99.90
9383;DHT22;4731;49.708;10.816;2023-10-09T06:32:51;11.60;99.90
9383;DHT22;4731;49.708;10.816;2023-10-09T06:35:23;11.50;99.90
9383;DHT22;4731;49.708;10.816;2023-10-09T06:37:58;12.50;99.90
9383;DHT22;4731;49.708;10.816;2023-10-09T06:43:34;14.10;99.90
9383;DHT22;4731;49.708;10.816;2023-10-09T06:46:15;13.00;99.90
9383;DHT22;4731;49.708;10.816;2023-10-09T06:48:59;12.20;99.90
9383;DHT22;4731;49.708;10.816;2023-10-09T06:51:41;12.30;99.90
9383;DHT22;4731;49.708;10.816;2023-10-09T06:54:07;12.50;99.90
9383;DHT22;4731;49.708;10.816;2023-10-09T06:56:35;12.60;99.90
9383;DHT22;4731;49.708;10.816;2023-10-09T06:59:20;12.70;99.90
9383;DHT22;4731;49.708;10.816;2023-10-09T07:01:49;12.90;99.90
9383;DHT22;4731;49.708;10.816;2023-10-09T07:04:37;13.20;99.90
9383;DHT22;4731;49.708;10.816;2023-10-09T07:07:12;13.70;99.90
9383;DHT22;4731;49.708;10.816;2023-10-09T07:09:42;14.50;99.90
9383;DHT22;4731;49.708;10.816;2023-10-09T07:12:09;16.20;99.90
9383;DHT22;4731;49.708;10.816;2023-10-09T07:14:40;16.90;99.90
9383;DHT22;4731;49.708;10.816;2023-10-09T07:17:24;17.80;99.90
9383;DHT22;4731;49.708;10.816;2023-10-09T07:20:09;18.20;99.90
9383;DHT22;4731;49.708;10.816;2023-10-09T07:22:38;18.60;99.90
9383;DHT22;4731;49.708;10.816;2023-10-09T07:25:22;19.40;99.90
9383;DHT22;4731;49.708;10.816;2023-10-09T07:28:07;20.50;99.90
9383;DHT22;4731;49.708;10.816;2023-10-09T07:30:57;20.50;99.90
9383;DHT22;4731;49.708;10.816;2023-10-09T07:33:29;20.50;99.90
9383;DHT22;4731;49.708;10.816;2023-10-09T07:36:17;20.10;99.90
9383;DHT22;4731;49.708;10.816;2023-10-09T07:38:56;19.90;99.90
9383;DHT22;4731;49.708;10.816;2023-10-09T07:41:30;20.50;99.90
9383;DHT22;4731;49.708;10.816;2023-10-09T07:44:04;20.80;99.90
9383;DHT22;4731;49.708;10.816;2023-10-09T07:46:45;20.40;99.90
9383;DHT22;4731;49.708;10.816;2023-10-09T07:49:18;19.90;99.90
9383;DHT22;4731;49.708;10.816;2023-10-09T07:51:51;19.30;99.90
9383;DHT22;4731;49.708;10.816;2023-10-09T07:54:18;18.80;99.90
9383;DHT22;4731;49.708;10.816;2023-10-09T07:56:58;18.40;99.90
9383;DHT22;4731;49.708;10.816;2023-10-09T07:59:34;18.10;99.90
9383;DHT22;4731;49.708;10.816;2023-10-09T08:02:08;17.80;99.90
9383;DHT22;4731;49.708;10.816;2023-10-09T08:04:39;17.30;99.90
9383;DHT22;4731;49.708;10.816;2023-10-09T08:07:14;17.10;99.90
9383;DHT22;4731;49.708;10.816;2023-10-09T08:09:45;17.40;99.90
9383;DHT22;4731;49.708;10.816;2023-10-09T08:12:14;17.60;99.90
9383;DHT22;4731;49.708;10.816;2023-10-09T08:15:01;16.90;99.90
9383;DHT22;4731;49.708;10.816;2023-10-09T08:17:44;16.90;99.90
9383;DHT22;4731;49.708;10.816;2023-10-09T08:20:16;18.10;99.90
9383;DHT22;4731;49.708;10.816;2023-10-09T08:22:43;17.00;99.90
9383;DHT22;4731;49.708;10.816;2023-10-09T08:25:15;16.70;99.90
9383;DHT22;4731;49.708;10.816;2023-10-09T08:27:58;16.70;99.90
9383;DHT22;4731;49.708;10.816;2023-10-09T08:30:44;16.40;99.90
9383;DHT22;4731;49.708;10.816;2023-10-09T08:33:17;16.30;99.90
9383;DHT22;4731;49.708;10.816;2023-10-09T08:36:02;17.00;99.90
9383;DHT22;4731;49.708;10.816;2023-10-09T08:38:30;16.30;99.90
9383;DHT22;4731;49.708;10.816;2023-10-09T08:41:06;16.30;99.90
9383;DHT22;4731;49.708;10.816;2023-10-09T08:43:50;16.30;99.90
9383;DHT22;4731;49.708;10.816;2023-10-09T08:46:20;16.30;99.90
9383;DHT22;4731;49.708;10.816;2023-10-09T08:48:49;16.20;99.90
9383;DHT22;4731;49.708;10.816;2023-10-09T08:51:17;16.20;99.90
9383;DHT22;4731;49.708;10.816;2023-10-09T08:53:45;16.10;99.90
9383;DHT22;4731;49.708;10.816;2023-10-09T08:56:13;16.10;99.90
9383;DHT22;4731;49.708;10.816;2023-10-09T08:58:51;16.20;99.90
9383;DHT22;4731;49.708;10.816;2023-10-09T09:01:20;16.20;99.90
9383;DHT22;4731;49.708;10.816;2023-10-09T09:03:49;16.20;99.90
9383;DHT22;4731;49.708;10.816;2023-10-09T09:06:18;15.90;99.90
9383;DHT22;4731;49.708;10.816;2023-10-09T09:08:45;15.90;99.90
9383;DHT22;4731;49.708;10.816;2023-10-09T09:11:14;17.50;99.90
9383;DHT22;4731;49.708;10.816;2023-10-09T09:13:44;16.00;99.90
9383;DHT22;4731;49.708;10.816;2023-10-09T09:16:16;15.80;99.90
9383;DHT22;4731;49.708;10.816;2023-10-09T09:18:56;14.20;99.90
9383;DHT22;4731;49.708;10.816;2023-10-09T09:21:31;15.70;99.90
9383;DHT22;4731;49.708;10.816;2023-10-09T09:24:05;15.50;99.90
9383;DHT22;4731;49.708;10.816;2023-10-09T09:26:42;15.40;99.90
9383;DHT22;4731;49.708;10.816;2023-10-09T09:29:13;15.30;99.90
9383;DHT22;4731;49.708;10.816;2023-10-09T09:31:52;15.80;99.90
9383;DHT22;4731;49.708;10.816;2023-10-09T09:34:21;15.30;99.90
9383;DHT22;4731;49.708;10.816;2023-10-09T09:36:53;15.60;99.90
9383;DHT22;4731;49.708;10.816;2023-10-09T09:39:25;15.50;99.90
9383;DHT22;4731;49.708;10.816;2023-10-09T09:41:56;15.20;99.90
9383;DHT22;4731;49.708;10.816;2023-10-09T09:44:31;15.30;99.90
9383;DHT22;4731;49.708;10.816;2023-10-09T09:47:00;15.50;99.90
9383;DHT22;4731;49.708;10.816;2023-10-09T09:49:28;16.10;99.90
9383;DHT22;4731;49.708;10.816;2023-10-09T09:52:01;15.60;99.90
9383;DHT22;4731;49.708;10.816;2023-10-09T09:54:36;15.60;99.90
9383;DHT22;4731;49.708;10.816;2023-10-09T09:57:03;15.70;99.90
9383;DHT22;4731;49.708;10.816;2023-10-09T09:59:38;15.90;99.90
9383;DHT22;4731;49.708;10.816;2023-10-09T10:02:20;16.20;99.90
9383;DHT22;4731;49.708;10.816;2023-10-09T10:04:52;16.00;99.90
9383;DHT22;4731;49.708;10.816;2023-10-09T10:07:23;17.60;99.90
9383;DHT22;4731;49.708;10.816;2023-10-09T10:09:50;15.80;99.90
9383;DHT22;4731;49.708;10.816;2023-10-09T10:15:58;15.50;99.90
9383;DHT22;4731;49.708;10.816;2023-10-09T10:18:31;15.50;99.90
9383;DHT22;4731;49.708;10.816;2023-10-09T10:21:12;17.30;99.90
9383;DHT22;4731;49.708;10.816;2023-10-09T10:23:42;15.50;99.90
9383;DHT22;4731;49.708;10.816;2023-10-09T10:26:20;15.70;99.90
9383;DHT22;4731;49.708;10.816;2023-10-09T10:29:14;15.90;99.90
9383;DHT22;4731;49.708;10.816;2023-10-09T10:31:57;16.00;99.90
9383;DHT22;4731;49.708;10.816;2023-10-09T10:34:26;16.20;99.90
9383;DHT22;4731;49.708;10.816;2023-10-09T10:37:14;16.40;99.90
9383;DHT22;4731;49.708;10.816;2023-10-09T10:39:50;16.60;99.90
9383;DHT22;4731;49.708;10.816;2023-10-09T10:42:17;16.30;99.90
9383;DHT22;4731;49.708;10.816;2023-10-09T10:44:59;16.20;99.90
9383;DHT22;4731;49.708;10.816;2023-10-09T10:47:28;16.60;99.90
9383;DHT22;4731;49.708;10.816;2023-10-09T10:50:00;16.20;99.90
9383;DHT22;4731;49.708;10.816;2023-10-09T10:52:47;16.50;99.90
9383;DHT22;4731;49.708;10.816;2023-10-09T10:55:23;16.80;99.90
9383;DHT22;4731;49.708;10.816;2023-10-09T10:58:16;17.20;99.90
9383;DHT22;4731;49.708;10.816;2023-10-09T11:00:53;17.60;99.90
9383;DHT22;4731;49.708;10.816;2023-10-09T11:03:37;17.90;99.90
9383;DHT22;4731;49.708;10.816;2023-10-09T11:06:24;18.10;99.90
9383;DHT22;4731;49.708;10.816;2023-10-09T11:09:03;18.20;99.90
9383;DHT22;4731;49.708;10.816;2023-10-09T11:11:36;18.20;99.90
9383;DHT22;4731;49.708;10.816;2023-10-09T11:14:12;18.30;99.90
9383;DHT22;4731;49.708;10.816;2023-10-09T11:16:41;18.20;99.90
9383;DHT22;4731;49.708;10.816;2023-10-09T11:19:18;17.90;99.90
9383;DHT22;4731;49.708;10.816;2023-10-09T11:21:58;17.80;99.90
9383;DHT22;4731;49.708;10.816;2023-10-09T11:24:41;17.90;99.90
9383;DHT22;4731;49.708;10.816;2023-10-09T11:27:09;17.90;99.90
9383;DHT22;4731;49.708;10.816;2023-10-09T11:29:48;17.80;99.90
9383;DHT22;4731;49.708;10.816;2023-10-09T11:32:20;17.80;99.90
9383;DHT22;4731;49.708;10.816;2023-10-09T11:35:01;17.90;99.90
9383;DHT22;4731;49.708;10.816;2023-10-09T11:37:36;17.90;99.90
9383;DHT22;4731;49.708;10.816;2023-10-09T11:40:07;17.90;99.90
9383;DHT22;4731;49.708;10.816;2023-10-09T11:42:50;17.90;99.90
9383;DHT22;4731;49.708;10.816;2023-10-09T11:45:21;17.90;99.90
9383;DHT22;4731;49.708;10.816;2023-10-09T11:47:51;17.80;99.90
9383;DHT22;4731;49.708;10.816;2023-10-09T11:50:40;17.70;99.90
9383;DHT22;4731;49.708;10.816;2023-10-09T11:53:16;17.70;99.90
9383;DHT22;4731;49.708;10.816;2023-10-09T11:56:00;17.60;99.90
9383;DHT22;4731;49.708;10.816;2023-10-09T11:58:27;17.50;99.90
9383;DHT22;4731;49.708;10.816;2023-10-09T12:00:55;17.60;99.90
9383;DHT22;4731;49.708;10.816;2023-10-09T12:03:25;17.70;99.90
9383;DHT22;4731;49.708;10.816;2023-10-09T12:05:56;17.80;99.90
9383;DHT22;4731;49.708;10.816;2023-10-09T12:08:23;17.90;99.90
9383;DHT22;4731;49.708;10.816;2023-10-09T12:10:55;18.10;99.90
9383;DHT22;4731;49.708;10.816;2023-10-09T12:13:24;17.90;99.90
9383;DHT22;4731;49.708;10.816;2023-10-09T12:15:51;18.10;99.90
9383;DHT22;4731;49.708;10.816;2023-10-09T12:18:20;18.20;99.90
9383;DHT22;4731;49.708;10.816;2023-10-09T12:20:47;18.10;99.90
9383;DHT22;4731;49.708;10.816;2023-10-09T12:23:17;19.10;99.90
9383;DHT22;4731;49.708;10.816;2023-10-09T12:25:45;18.50;99.90
9383;DHT22;4731;49.708;10.816;2023-10-09T12:28:13;18.70;99.90
9383;DHT22;4731;49.708;10.816;2023-10-09T12:30:41;19.00;99.90
9383;DHT22;4731;49.708;10.816;2023-10-09T12:33:09;19.20;99.90
9383;DHT22;4731;49.708;10.816;2023-10-09T12:35:38;19.20;99.90
9383;DHT22;4731;49.708;10.816;2023-10-09T12:38:06;19.30;99.90
9383;DHT22;4731;49.708;10.816;2023-10-09T12:40:36;19.40;99.90
9383;DHT22;4731;49.708;10.816;2023-10-09T12:43:05;19.40;99.90
9383;DHT22;4731;49.708;10.816;2023-10-09T12:45:42;19.40;99.90
9383;DHT22;4731;49.708;10.816;2023-10-09T12:48:10;21.60;99.90
9383;DHT22;4731;49.708;10.816;2023-10-09T12:50:38;19.30;99.90
9383;DHT22;4731;49.708;10.816;2023-10-09T12:53:07;19.40;99.90
9383;DHT22;4731;49.708;10.816;2023-10-09T12:55:35;19.40;99.90
9383;DHT22;4731;49.708;10.816;2023-10-09T12:58:06;19.30;99.90
9383;DHT22;4731;49.708;10.816;2023-10-09T13:00:34;19.30;99.90
9383;DHT22;4731;49.708;10.816;2023-10-09T13:03:05;19.20;99.90
9383;DHT22;4731;49.708;10.816;2023-10-09T13:05:43;19.20;99.90
9383;DHT22;4731;49.708;10.816;2023-10-09T13:08:18;19.20;99.90
9383;DHT22;4731;49.708;10.816;2023-10-09T13:10:47;19.20;99.90
9383;DHT22;4731;49.708;10.816;2023-10-09T13:13:15;19.40;99.90
9383;DHT22;4731;49.708;10.816;2023-10-09T13:15:42;19.20;99.90
9383;DHT22;4731;49.708;10.816;2023-10-09T13:18:10;19.40;99.90
9383;DHT22;4731;49.708;10.816;2023-10-09T13:20:38;19.50;99.90
9383;DHT22;4731;49.708;10.816;2023-10-09T13:23:05;19.50;99.90
9383;DHT22;4731;49.708;10.816;2023-10-09T13:25:32;19.60;99.90
9383;DHT22;4731;49.708;10.816;2023-10-09T13:28:05;19.50;99.90
9383;DHT22;4731;49.708;10.816;2023-10-09T13:30:32;19.50;99.90
9383;DHT22;4731;49.708;10.816;2023-10-09T13:33:04;19.60;99.90
9383;DHT22;4731;49.708;10.816;2023-10-09T13:35:36;19.70;99.90
9383;DHT22;4731;49.708;10.816;2023-10-09T13:38:09;19.50;99.90
9383;DHT22;4731;49.708;10.816;2023-10-09T13:40:37;19.60;99.90
9383;DHT22;4731;49.708;10.816;2023-10-09T13:43:03;19.60;99.90
9383;DHT22;4731;49.708;10.816;2023-10-09T13:45:31;19.60;99.90
9383;DHT22;4731;49.708;10.816;2023-10-09T13:47:59;19.60;99.90
9383;DHT22;4731;49.708;10.816;2023-10-09T13:50:28;19.70;99.90
9383;DHT22;4731;49.708;10.816;2023-10-09T13:53:00;19.70;99.90
9383;DHT22;4731;49.708;10.816;2023-10-09T13:55:26;19.50;99.90
9383;DHT22;4731;49.708;10.816;2023-10-09T13:57:57;19.60;99.90
9383;DHT22;4731;49.708;10.816;2023-10-09T14:00:26;19.40;99.90
9383;DHT22;4731;49.708;10.816;2023-10-09T14:02:59;19.40;99.90
9383;DHT22;4731;49.708;10.816;2023-10-09T14:05:29;19.50;99.90
9383;DHT22;4731;49.708;10.816;2023-10-09T14:07:56;19.50;99.90
9383;DHT22;4731;49.708;10.816;2023-10-09T14:10:27;19.30;99.90
9383;DHT22;4731;49.708;10.816;2023-10-09T14:12:55;19.40;99.90
9383;DHT22;4731;49.708;10.816;2023-10-09T14:15:23;19.30;99.90
9383;DHT22;4731;49.708;10.816;2023-10-09T14:17:49;19.20;99.90
9383;DHT22;4731;49.708;10.816;2023-10-09T14:20:21;19.10;99.90
9383;DHT22;4731;49.708;10.816;2023-10-09T14:22:58;19.10;99.90
9383;DHT22;4731;49.708;10.816;2023-10-09T14:25:33;19.10;99.90
9383;DHT22;4731;49.708;10.816;2023-10-09T14:28:03;19.10;99.90
9383;DHT22;4731;49.708;10.816;2023-10-09T14:30:33;19.00;99.90
9383;DHT22;4731;49.708;10.816;2023-10-09T14:33:08;19.00;99.90
9383;DHT22;4731;49.708;10.816;2023-10-09T14:35:39;19.00;99.90
9383;DHT22;4731;49.708;10.816;2023-10-09T14:38:06;19.00;99.90
9383;DHT22;4731;49.708;10.816;2023-10-09T14:40:41;19.00;99.90
9383;DHT22;4731;49.708;10.816;2023-10-09T14:43:08;19.00;99.90
9383;DHT22;4731;49.708;10.816;2023-10-09T14:45:44;19.00;99.90
9383;DHT22;4731;49.708;10.816;2023-10-09T14:48:14;18.90;99.90
9383;DHT22;4731;49.708;10.816;2023-10-09T14:50:47;18.90;99.90
9383;DHT22;4731;49.708;10.816;2023-10-09T14:53:14;19.00;99.90
9383;DHT22;4731;49.708;10.816;2023-10-09T14:55:43;19.00;99.90
9383;DHT22;4731;49.708;10.816;2023-10-09T14:58:11;19.00;99.90
9383;DHT22;4731;49.708;10.816;2023-10-09T15:00:38;19.10;99.90
9383;DHT22;4731;49.708;10.816;2023-10-09T15:03:11;19.00;99.90
9383;DHT22;4731;49.708;10.816;2023-10-09T15:05:40;19.00;99.90
9383;DHT22;4731;49.708;10.816;2023-10-09T15:08:07;18.90;99.90
9383;DHT22;4731;49.708;10.816;2023-10-09T15:10:45;18.90;99.90
9383;DHT22;4731;49.708;10.816;2023-10-09T15:13:13;18.80;99.90
9383;DHT22;4731;49.708;10.816;2023-10-09T15:15:42;18.90;99.90
9383;DHT22;4731;49.708;10.816;2023-10-09T15:18:08;18.90;99.90
9383;DHT22;4731;49.708;10.816;2023-10-09T15:20:38;18.70;99.90
9383;DHT22;4731;49.708;10.816;2023-10-09T15:23:06;18.70;99.90
9383;DHT22;4731;49.708;10.816;2023-10-09T15:25:33;18.70;99.90
9383;DHT22;4731;49.708;10.816;2023-10-09T15:28:02;18.70;99.90
9383;DHT22;4731;49.708;10.816;2023-10-09T15:30:29;18.60;99.90
9383;DHT22;4731;49.708;10.816;2023-10-09T15:32:57;18.50;99.90
9383;DHT22;4731;49.708;10.816;2023-10-09T15:35:24;18.40;99.90
9383;DHT22;4731;49.708;10.816;2023-10-09T15:37:50;18.30;99.90
9383;DHT22;4731;49.708;10.816;2023-10-09T15:40:18;18.40;99.90
9383;DHT22;4731;49.708;10.816;2023-10-09T15:42:49;18.30;99.90
9383;DHT22;4731;49.708;10.816;2023-10-09T15:45:22;19.20;99.90
9383;DHT22;4731;49.708;10.816;2023-10-09T15:47:54;18.10;99.90
9383;DHT22;4731;49.708;10.816;2023-10-09T15:50:21;18.10;99.90
9383;DHT22;4731;49.708;10.816;2023-10-09T15:52:49;18.10;99.90
9383;DHT22;4731;49.708;10.816;2023-10-09T15:55:19;18.00;99.90
9383;DHT22;4731;49.708;10.816;2023-10-09T15:57:49;18.00;99.90
9383;DHT22;4731;49.708;10.816;2023-10-09T16:00:18;17.90;99.90
9383;DHT22;4731;49.708;10.816;2023-10-09T16:02:48;17.90;99.90
9383;DHT22;4731;49.708;10.816;2023-10-09T16:05:19;17.90;99.90
9383;DHT22;4731;49.708;10.816;2023-10-09T16:07:51;17.90;99.90
9383;DHT22;4731;49.708;10.816;2023-10-09T16:10:18;18.00;99.90
9383;DHT22;4731;49.708;10.816;2023-10-09T16:12:46;17.90;99.90
9383;DHT22;4731;49.708;10.816;2023-10-09T16:15:13;17.80;99.90
9383;DHT22;4731;49.708;10.816;2023-10-09T16:17:43;17.80;99.90
9383;DHT22;4731;49.708;10.816;2023-10-09T16:20:14;17.80;99.90
9383;DHT22;4731;49.708;10.816;2023-10-09T16:22:47;17.80;99.90
9383;DHT22;4731;49.708;10.816;2023-10-09T16:25:15;17.80;99.90
9383;DHT22;4731;49.708;10.816;2023-10-09T16:27:43;18.00;99.90
9383;DHT22;4731;49.708;10.816;2023-10-09T16:30:15;17.50;99.90